Historyczne dane pomiarowe

Dodano dane terminowe – wersja testowa.

Dane z okresu 1951-2019

Wersja bazy: 1.34 [2019-03-16, lista zmian], aktualizacja planowana na 2019-04-15

Dane meteo z obszaru Polski uzyskane na podstawie danych udostępnionych przez Instytut Meteorologii i Gospodarki Wodnej – Państwowy Instytut Badawczy.

 

Wybierz Datę:    

       

TemperaturaWilgotnośćWiatrCiśnienieOpadyŚniegCzas trwania zjawisk
 Stacja t tx tn tng RH VA  wxwx mslp ppp RRR   cm mm wxwxwxwxwxwxwx
1961-08-14 13.5 19.8 8.7--- 2.0 0.7---- 0.0------------
1961-08-13 12.5 17.4 11.0--- 6.7 1.7---- 10.2------------
1961-08-12 18.4 23.5 15.0--- 7.7 0.7---- 15.5------------
1961-08-11 23.7 32.9 18.2--- 1.7 2.0---- 0.0------------
1961-08-10 24.0 29.2 18.3--- 1.7 3.0---- 0.0------------
1961-08-09 22.4 29.1 12.0--- 5.7 0.0---- 10.8------------
1961-08-08 16.9 21.3 14.4--- 7.0 1.0---- 2.6------------
1961-08-07 23.2 30.6 13.2--- 3.0 1.3---- 2.4------------
1961-08-06 22.4 30.6 10.0--- 0.0 2.0---- 0.0------------
1961-08-05 18.3 24.7 14.7--- 2.7 2.3---- 0.0------------
1961-08-04 15.8 21.1 7.7--- 3.3 0.7---- 0.0------------
1961-08-03 18.2 23.9 11.7--- 7.0 0.7---- 0.4------------
1961-08-02 17.6 25.9 6.0--- 0.3 1.0---- 0.0------------
1961-08-01 14.3 21.3 11.2--- 4.0 1.7---- 0.0------------
1961-07-31 13.6 17.2 11.1--- 7.3 2.7---- 0.3------------
1961-07-30 12.1 14.4 11.5--- 8.0 4.3---- 23.7------------
1961-07-29 14.6 18.6 12.6--- 8.0 2.0---- 19.0------------
1961-07-28 20.2 26.4 14.8--- 6.3 1.7---- 8.8------------
1961-07-27 20.2 27.9 8.3--- 4.3 1.0---- 1.0------------
1961-07-26 16.0 22.6 11.0--- 4.3 1.7---- 0.0------------
1961-07-25 14.0 16.9 9.7--- 7.3 2.0---- 0.0------------
1961-07-24 13.5 19.0 6.3--- 6.0 1.7---- 0.0------------
1961-07-23 14.0 21.0 9.3--- 4.3 0.0---- 0.0------------
1961-07-22 14.3 20.0 11.4--- 5.0 2.7---- 0.0------------
1961-07-21 15.2 19.8 10.2--- 5.0 2.0---- 0.0------------
1961-07-20 15.0 19.5 8.1--- 7.0 1.3---- 0.0------------
1961-07-19 14.0 21.1 6.2--- 2.0 0.7---- 2.6------------
1961-07-18 14.0 19.3 7.8--- 2.3 3.0---- 0.2------------
1961-07-17 16.5 23.5 10.2--- 5.7 1.3---- 0.0------------
1961-07-16 15.0 21.3 11.7--- 4.0 2.3---- 0.0------------
1961-07-15 17.1 24.6 7.7--- 4.0 2.7---- 1.0------------
1961-07-14 13.7 19.7 11.0--- 5.0 2.0---- 0.0------------
1961-07-13 20.0 29.1 10.2--- 3.3 4.0---- 5.9------------
1961-07-12 19.2 27.0 7.3--- 4.0 2.0---- 9.1------------
1961-07-11 15.4 21.5 4.9--- 2.0 1.7---- 0.0------------
1961-07-10 14.3 20.2 9.1--- 6.7 2.3---- 0.0------------
1961-07-09 15.3 23.1 4.7--- 2.0 1.0---- 0.0------------
1961-07-08 12.8 20.8 4.1--- 1.3 0.7---- 0.0------------
1961-07-07 13.5 17.8 6.5--- 7.3 1.7---- 0.0------------
1961-07-06 12.6 16.3 4.6--- 6.0 1.0---- 0.7------------
1961-07-05 14.4 21.2 11.6--- 5.0 3.3---- 0.0------------
1961-07-04 21.9 29.0 14.1--- 2.3 2.3---- 1.0------------
1961-07-03 21.1 29.6 9.7--- 1.3 0.3---- 0.0------------
1961-07-02 19.7 27.9 9.1--- 0.0 0.0---- 0.0------------
1961-07-01 18.3 27.1 9.7--- 1.0 0.0---- 0.0------------
1961-06-30 17.3 23.8 10.1--- 1.3 2.0---- 0.0------------
1961-06-29 16.0 20.5 6.9--- 5.0 2.3---- 0.0------------
1961-06-28 14.2 19.1 11.6--- 5.0 4.7---- 1.8------------
1961-06-27 22.3 31.8 14.0--- 2.3 2.0---- 28.6------------
1961-06-26 21.4 31.1 11.1--- 4.0 0.7---- 1.4------------
1961-06-25 19.8 29.2 7.4--- 0.0 2.3---- 0.0------------
1961-06-24 17.2 25.2 8.8--- 4.7 2.3---- 0.0------------
1961-06-23 17.2 23.7 13.6--- 5.0 2.7---- 0.0------------
1961-06-22 17.8 23.1 7.3--- 2.0 3.0---- 8.6------------
1961-06-21 16.5 23.8 4.1--- 0.0 1.0---- 0.0------------
1961-06-20 14.4 21.1 8.1--- 1.0 3.3---- 0.0------------
1961-06-19 19.3 26.7 10.6--- 4.3 2.0---- 0.0------------
1961-06-18 19.6 26.3 6.8--- 2.3 0.7---- 0.0------------
1961-06-17 14.6 22.5 4.5--- 2.0 1.0---- 0.0------------
1961-06-16 12.8 19.3 4.7--- 1.3 1.0---- 0.0------------
296.4 ms

 

Źródłem pochodzenia danych jest Instytut Meteorologii i Gospodarki Wodnej – Państwowy Instytut Badawczy. Dane Instytutu Meteorologii i Gospodarki Wodnej – Państwowego Instytutu Badawczego zostały przetworzone.

Dane źródłowe można odnaleźć na stronie https://dane.imgw.pl